Terminal Aerodrome Forecast
Issued by NWS

Home | Current Version | Previous Version | Text Only | Print | Product List | Glossary On
Versions: 1 2 3 4 5 6 7 8 9 10 11 12
000
FTUS46 KSEW 202335
TAFPAE
TAF
KPAE 202335Z 2100/2124 30005KT P6SM SCT250
     FM211300 01003KT P6SM SCT001
      TEMPO 2114/2116 BKN001
     FM211600 36006KT P6SM SKC=

USA.gov is the U.S. government's official web portal to all federal, state and local government web resources and services.